sensor_id;sensor_type;location;lat;lon;timestamp;pressure;altitude;pressure_sealevel;temperature;humidity
11053;BME280;55230;42.602;23.470;2023-05-01T00:01:29;93482.53;;;9.35;100.00
11053;BME280;55230;42.602;23.470;2023-05-01T00:03:56;93477.25;;;9.32;100.00
11053;BME280;55230;42.602;23.470;2023-05-01T00:06:23;93484.41;;;9.26;100.00
11053;BME280;55230;42.602;23.470;2023-05-01T00:08:50;93320.59;;;7.98;100.00
11053;BME280;55230;42.602;23.470;2023-05-01T00:11:17;93411.00;;;8.61;100.00
11053;BME280;55230;42.602;23.470;2023-05-01T00:13:45;93193.94;;;7.10;100.00
11053;BME280;55230;42.602;23.470;2023-05-01T00:16:12;93488.34;;;9.12;100.00
11053;BME280;55230;42.602;23.470;2023-05-01T00:18:39;93472.41;;;8.84;100.00
11053;BME280;55230;42.602;23.470;2023-05-01T00:21:06;93487.28;;;9.10;100.00
11053;BME280;55230;42.602;23.470;2023-05-01T00:23:32;93430.97;;;8.72;100.00
11053;BME280;55230;42.602;23.470;2023-05-01T00:25:59;93489.97;;;9.10;100.00
11053;BME280;55230;42.602;23.470;2023-05-01T00:28:26;93456.84;;;8.79;100.00
11053;BME280;55230;42.602;23.470;2023-05-01T00:30:56;93346.69;;;7.98;100.00
11053;BME280;55230;42.602;23.470;2023-05-01T00:33:22;93483.66;;;9.04;100.00
11053;BME280;55230;42.602;23.470;2023-05-01T00:35:49;93491.53;;;8.98;100.00
11053;BME280;55230;42.602;23.470;2023-05-01T00:38:17;93300.72;;;7.49;100.00
11053;BME280;55230;42.602;23.470;2023-05-01T00:40:44;93453.13;;;8.64;100.00
11053;BME280;55230;42.602;23.470;2023-05-01T00:43:11;93505.97;;;8.92;100.00
11053;BME280;55230;42.602;23.470;2023-05-01T00:45:39;93505.84;;;8.95;100.00
11053;BME280;55230;42.602;23.470;2023-05-01T00:48:10;93504.53;;;9.00;100.00
11053;BME280;55230;42.602;23.470;2023-05-01T00:50:37;93428.53;;;8.53;100.00
11053;BME280;55230;42.602;23.470;2023-05-01T00:53:04;93404.09;;;8.38;100.00
11053;BME280;55230;42.602;23.470;2023-05-01T00:55:31;93511.34;;;8.92;100.00
11053;BME280;55230;42.602;23.470;2023-05-01T00:57:59;93461.75;;;8.59;100.00
11053;BME280;55230;42.602;23.470;2023-05-01T01:00:26;93487.63;;;8.99;100.00
11053;BME280;55230;42.602;23.470;2023-05-01T01:02:53;93543.09;;;9.18;100.00
11053;BME280;55230;42.602;23.470;2023-05-01T01:05:24;93441.84;;;8.56;100.00
11053;BME280;55230;42.602;23.470;2023-05-01T01:07:58;93027.09;;;5.88;100.00
11053;BME280;55230;42.602;23.470;2023-05-01T01:10:34;93334.97;;;8.04;100.00
11053;BME280;55230;42.602;23.470;2023-05-01T01:13:08;93525.34;;;9.21;100.00
11053;BME280;55230;42.602;23.470;2023-05-01T01:15:41;93506.94;;;9.19;100.00
11053;BME280;55230;42.602;23.470;2023-05-01T01:18:16;93528.59;;;9.16;100.00
11053;BME280;55230;42.602;23.470;2023-05-01T01:20:51;93513.28;;;9.13;100.00
11053;BME280;55230;42.602;23.470;2023-05-01T01:23:35;93429.38;;;8.28;100.00
11053;BME280;55230;42.602;23.470;2023-05-01T01:26:26;93518.94;;;9.06;100.00
11053;BME280;55230;42.602;23.470;2023-05-01T01:29:21;93523.91;;;8.95;100.00
11053;BME280;55230;42.602;23.470;2023-05-01T01:31:59;93527.97;;;8.99;100.00
11053;BME280;55230;42.602;23.470;2023-05-01T01:34:32;93526.16;;;8.96;100.00
11053;BME280;55230;42.602;23.470;2023-05-01T01:37:02;93473.59;;;8.49;100.00
11053;BME280;55230;42.602;23.470;2023-05-01T01:39:37;93517.78;;;8.94;100.00
11053;BME280;55230;42.602;23.470;2023-05-01T01:42:12;93520.25;;;8.89;100.00
11053;BME280;55230;42.602;23.470;2023-05-01T01:44:43;93522.81;;;8.92;100.00
11053;BME280;55230;42.602;23.470;2023-05-01T01:47:13;93523.28;;;8.91;100.00
11053;BME280;55230;42.602;23.470;2023-05-01T01:49:45;93500.53;;;8.58;100.00
11053;BME280;55230;42.602;23.470;2023-05-01T01:52:15;93091.31;;;5.88;100.00
11053;BME280;55230;42.602;23.470;2023-05-01T01:54:48;93524.56;;;8.99;100.00
11053;BME280;55230;42.602;23.470;2023-05-01T01:57:18;93296.84;;;7.50;100.00
11053;BME280;55230;42.602;23.470;2023-05-01T01:59:47;93429.88;;;8.36;100.00
11053;BME280;55230;42.602;23.470;2023-05-01T02:02:18;93488.94;;;8.61;100.00
11053;BME280;55230;42.602;23.470;2023-05-01T02:04:47;93515.31;;;8.87;100.00
11053;BME280;55230;42.602;23.470;2023-05-01T02:07:16;93443.84;;;8.18;100.00
11053;BME280;55230;42.602;23.470;2023-05-01T02:09:44;93370.34;;;7.78;100.00
11053;BME280;55230;42.602;23.470;2023-05-01T02:12:12;93438.59;;;8.14;100.00
11053;BME280;55230;42.602;23.470;2023-05-01T02:14:41;93339.50;;;6.82;100.00
11053;BME280;55230;42.602;23.470;2023-05-01T02:17:08;93510.03;;;8.50;100.00
11053;BME280;55230;42.602;23.470;2023-05-01T02:19:37;93509.72;;;8.48;100.00
11053;BME280;55230;42.602;23.470;2023-05-01T02:22:06;93511.78;;;8.44;100.00
11053;BME280;55230;42.602;23.470;2023-05-01T02:24:34;93440.66;;;7.85;100.00
11053;BME280;55230;42.602;23.470;2023-05-01T02:27:14;93502.63;;;8.41;100.00
11053;BME280;55230;42.602;23.470;2023-05-01T02:29:41;93494.91;;;8.43;100.00
11053;BME280;55230;42.602;23.470;2023-05-01T02:32:08;93502.84;;;8.47;100.00
11053;BME280;55230;42.602;23.470;2023-05-01T02:34:35;93545.19;;;8.55;100.00
11053;BME280;55230;42.602;23.470;2023-05-01T02:37:03;93417.97;;;7.99;100.00
11053;BME280;55230;42.602;23.470;2023-05-01T02:39:33;93495.22;;;8.33;100.00
11053;BME280;55230;42.602;23.470;2023-05-01T02:42:01;93500.03;;;8.50;100.00
11053;BME280;55230;42.602;23.470;2023-05-01T02:44:31;93500.16;;;8.47;100.00
11053;BME280;55230;42.602;23.470;2023-05-01T02:47:04;93360.59;;;7.21;100.00
11053;BME280;55230;42.602;23.470;2023-05-01T02:49:33;93403.41;;;7.75;100.00
11053;BME280;55230;42.602;23.470;2023-05-01T02:52:01;93505.75;;;8.40;100.00
11053;BME280;55230;42.602;23.470;2023-05-01T02:54:29;93503.38;;;8.42;100.00
11053;BME280;55230;42.602;23.470;2023-05-01T02:56:57;93464.59;;;8.17;100.00
11053;BME280;55230;42.602;23.470;2023-05-01T02:59:24;93561.06;;;8.12;100.00
11053;BME280;55230;42.602;23.470;2023-05-01T03:01:51;93419.41;;;7.78;100.00
11053;BME280;55230;42.602;23.470;2023-05-01T03:04:18;93460.00;;;8.05;100.00
11053;BME280;55230;42.602;23.470;2023-05-01T03:06:44;93526.91;;;8.25;100.00
11053;BME280;55230;42.602;23.470;2023-05-01T03:09:11;93438.63;;;7.52;100.00
11053;BME280;55230;42.602;23.470;2023-05-01T03:11:38;93529.81;;;8.05;100.00
11053;BME280;55230;42.602;23.470;2023-05-01T03:14:06;93526.44;;;7.89;100.00
11053;BME280;55230;42.602;23.470;2023-05-01T03:16:33;93428.47;;;7.18;100.00
11053;BME280;55230;42.602;23.470;2023-05-01T03:18:59;93433.41;;;7.07;100.00
11053;BME280;55230;42.602;23.470;2023-05-01T03:21:26;93476.69;;;7.34;100.00
11053;BME280;55230;42.602;23.470;2023-05-01T03:23:53;93544.44;;;7.63;100.00
11053;BME280;55230;42.602;23.470;2023-05-01T03:26:20;93504.50;;;7.40;100.00
11053;BME280;55230;42.602;23.470;2023-05-01T03:28:46;93329.41;;;6.32;100.00
11053;BME280;55230;42.602;23.470;2023-05-01T03:31:14;93525.13;;;7.56;100.00
11053;BME280;55230;42.602;23.470;2023-05-01T03:33:41;93399.06;;;6.61;100.00
11053;BME280;55230;42.602;23.470;2023-05-01T03:36:08;93541.00;;;7.63;100.00
11053;BME280;55230;42.602;23.470;2023-05-01T03:38:35;93540.41;;;7.71;100.00
11053;BME280;55230;42.602;23.470;2023-05-01T03:41:02;93223.25;;;5.68;100.00
11053;BME280;55230;42.602;23.470;2023-05-01T03:43:30;93557.56;;;7.74;100.00
11053;BME280;55230;42.602;23.470;2023-05-01T03:45:57;93545.03;;;7.83;100.00
11053;BME280;55230;42.602;23.470;2023-05-01T03:48:25;93520.50;;;7.56;100.00
11053;BME280;55230;42.602;23.470;2023-05-01T03:50:52;93544.31;;;7.95;100.00
11053;BME280;55230;42.602;23.470;2023-05-01T03:53:18;93574.66;;;7.92;100.00
11053;BME280;55230;42.602;23.470;2023-05-01T03:55:45;93455.31;;;7.31;100.00
11053;BME280;55230;42.602;23.470;2023-05-01T03:58:12;93336.63;;;6.76;100.00
11053;BME280;55230;42.602;23.470;2023-05-01T04:00:39;93553.91;;;8.47;100.00
11053;BME280;55230;42.602;23.470;2023-05-01T04:03:06;93543.97;;;8.69;100.00
11053;BME280;55230;42.602;23.470;2023-05-01T04:05:34;93512.81;;;8.59;100.00
11053;BME280;55230;42.602;23.470;2023-05-01T04:08:01;93413.44;;;8.34;100.00
11053;BME280;55230;42.602;23.470;2023-05-01T04:10:28;93270.88;;;7.94;100.00
11053;BME280;55230;42.602;23.470;2023-05-01T04:12:55;93459.94;;;9.94;100.00
11053;BME280;55230;42.602;23.470;2023-05-01T04:15:22;93565.03;;;11.31;100.00
11053;BME280;55230;42.602;23.470;2023-05-01T04:17:48;93463.81;;;10.82;100.00
11053;BME280;55230;42.602;23.470;2023-05-01T04:20:15;93506.69;;;11.43;100.00
11053;BME280;55230;42.602;23.470;2023-05-01T04:22:45;93560.25;;;11.53;100.00
11053;BME280;55230;42.602;23.470;2023-05-01T04:25:12;93539.69;;;11.65;100.00
11053;BME280;55230;42.602;23.470;2023-05-01T04:27:38;93573.00;;;11.62;100.00
11053;BME280;55230;42.602;23.470;2023-05-01T04:30:06;93575.53;;;11.93;100.00
11053;BME280;55230;42.602;23.470;2023-05-01T04:32:33;93583.88;;;12.72;96.37
11053;BME280;55230;42.602;23.470;2023-05-01T04:35:00;93264.69;;;11.54;88.81
11053;BME280;55230;42.602;23.470;2023-05-01T04:37:27;93580.13;;;13.88;86.39
11053;BME280;55230;42.602;23.470;2023-05-01T04:39:55;93596.81;;;14.25;85.89
11053;BME280;55230;42.602;23.470;2023-05-01T04:42:22;93577.41;;;14.41;80.31
11053;BME280;55230;42.602;23.470;2023-05-01T04:44:49;93586.34;;;14.18;81.13
11053;BME280;55230;42.602;23.470;2023-05-01T04:47:16;93505.06;;;12.79;85.00
11053;BME280;55230;42.602;23.470;2023-05-01T04:49:42;93534.22;;;12.85;87.11
11053;BME280;55230;42.602;23.470;2023-05-01T04:52:09;93596.06;;;13.01;87.52
11053;BME280;55230;42.602;23.470;2023-05-01T04:54:36;93597.41;;;13.05;89.21
11053;BME280;55230;42.602;23.470;2023-05-01T04:57:04;93365.50;;;11.01;89.18
11053;BME280;55230;42.602;23.470;2023-05-01T04:59:31;93530.28;;;12.20;92.91
11053;BME280;55230;42.602;23.470;2023-05-01T05:01:58;93594.50;;;13.18;87.32
11053;BME280;55230;42.602;23.470;2023-05-01T05:04:25;93598.50;;;12.99;89.18
11053;BME280;55230;42.602;23.470;2023-05-01T05:06:52;93622.09;;;12.98;89.16
11053;BME280;55230;42.602;23.470;2023-05-01T05:09:19;93502.41;;;12.05;88.74
11053;BME280;55230;42.602;23.470;2023-05-01T05:11:45;93622.25;;;12.53;91.31
11053;BME280;55230;42.602;23.470;2023-05-01T05:14:14;93517.78;;;11.72;91.54
11053;BME280;55230;42.602;23.470;2023-05-01T05:16:41;93612.78;;;12.66;91.17
11053;BME280;55230;42.602;23.470;2023-05-01T05:19:08;93430.25;;;10.92;91.92
11053;BME280;55230;42.602;23.470;2023-05-01T05:21:35;93587.00;;;12.38;92.45
11053;BME280;55230;42.602;23.470;2023-05-01T05:24:02;93625.66;;;12.12;93.26
11053;BME280;55230;42.602;23.470;2023-05-01T05:26:29;93432.13;;;10.46;95.23
11053;BME280;55230;42.602;23.470;2023-05-01T05:28:55;93533.31;;;10.78;100.00
11053;BME280;55230;42.602;23.470;2023-05-01T05:31:24;93690.94;;;11.56;100.00
11053;BME280;55230;42.602;23.470;2023-05-01T05:33:51;93588.56;;;11.22;100.00
11053;BME280;55230;42.602;23.470;2023-05-01T05:36:18;93638.94;;;11.16;100.00
11053;BME280;55230;42.602;23.470;2023-05-01T05:38:44;93615.31;;;11.47;100.00
11053;BME280;55230;42.602;23.470;2023-05-01T05:41:11;93618.78;;;12.61;98.63
11053;BME280;55230;42.602;23.470;2023-05-01T05:43:38;93642.44;;;12.43;96.71
11053;BME280;55230;42.602;23.470;2023-05-01T05:46:05;93642.44;;;12.43;96.25
11053;BME280;55230;42.602;23.470;2023-05-01T05:48:33;93593.56;;;12.88;92.10
11053;BME280;55230;42.602;23.470;2023-05-01T05:51:00;93575.25;;;12.50;93.33
11053;BME280;55230;42.602;23.470;2023-05-01T05:53:27;93629.91;;;13.61;89.37
11053;BME280;55230;42.602;23.470;2023-05-01T05:55:53;93655.00;;;13.85;86.83
11053;BME280;55230;42.602;23.470;2023-05-01T05:58:20;93663.00;;;13.33;89.03
11053;BME280;55230;42.602;23.470;2023-05-01T06:00:49;93640.19;;;14.10;86.22
11053;BME280;55230;42.602;23.470;2023-05-01T06:03:17;93542.13;;;12.64;90.64
11053;BME280;55230;42.602;23.470;2023-05-01T06:05:45;93482.53;;;12.17;91.36
11053;BME280;55230;42.602;23.470;2023-05-01T06:08:12;93513.22;;;12.70;88.53
11053;BME280;55230;42.602;23.470;2023-05-01T06:10:42;93461.63;;;12.27;90.19
11053;BME280;55230;42.602;23.470;2023-05-01T06:13:09;93672.72;;;12.65;92.18
11053;BME280;55230;42.602;23.470;2023-05-01T06:15:36;93662.63;;;12.84;94.22
11053;BME280;55230;42.602;23.470;2023-05-01T06:18:03;93447.56;;;11.63;90.83
11053;BME280;55230;42.602;23.470;2023-05-01T06:20:31;93593.22;;;13.75;88.44
11053;BME280;55230;42.602;23.470;2023-05-01T06:22:59;93702.59;;;14.63;88.11
11053;BME280;55230;42.602;23.470;2023-05-01T06:25:26;93665.53;;;14.07;86.55
11053;BME280;55230;42.602;23.470;2023-05-01T06:27:52;93636.28;;;14.11;87.53
11053;BME280;55230;42.602;23.470;2023-05-01T06:30:19;93661.34;;;14.21;90.08
11053;BME280;55230;42.602;23.470;2023-05-01T06:32:46;93609.13;;;13.82;89.60
11053;BME280;55230;42.602;23.470;2023-05-01T06:35:13;93633.84;;;14.13;87.08
11053;BME280;55230;42.602;23.470;2023-05-01T06:37:40;93368.81;;;11.97;87.09
11053;BME280;55230;42.602;23.470;2023-05-01T06:40:09;93173.53;;;10.42;89.92
11053;BME280;55230;42.602;23.470;2023-05-01T06:42:36;93615.78;;;13.72;89.50
11053;BME280;55230;42.602;23.470;2023-05-01T06:45:04;93656.44;;;14.10;88.96
11053;BME280;55230;42.602;23.470;2023-05-01T06:47:31;93609.47;;;13.28;88.92
11053;BME280;55230;42.602;23.470;2023-05-01T06:49:58;93688.28;;;13.62;91.96
11053;BME280;55230;42.602;23.470;2023-05-01T06:52:25;93628.06;;;13.44;90.48
11053;BME280;55230;42.602;23.470;2023-05-01T06:54:51;93281.19;;;11.15;88.76
11053;BME280;55230;42.602;23.470;2023-05-01T06:57:20;93649.97;;;13.22;90.20
11053;BME280;55230;42.602;23.470;2023-05-01T06:59:46;93678.53;;;13.56;90.79
11053;BME280;55230;42.602;23.470;2023-05-01T07:02:13;93609.59;;;13.57;89.65
11053;BME280;55230;42.602;23.470;2023-05-01T07:04:40;93730.72;;;14.13;89.04
11053;BME280;55230;42.602;23.470;2023-05-01T07:07:08;93673.28;;;14.38;89.07
11053;BME280;55230;42.602;23.470;2023-05-01T07:09:35;93565.84;;;12.69;90.42
11053;BME280;55230;42.602;23.470;2023-05-01T07:12:03;93683.66;;;13.77;90.98
11053;BME280;55230;42.602;23.470;2023-05-01T07:14:32;93594.66;;;13.38;91.03
11053;BME280;55230;42.602;23.470;2023-05-01T07:16:59;93626.28;;;13.79;91.91
11053;BME280;55230;42.602;23.470;2023-05-01T07:19:26;93599.75;;;13.45;90.56
11053;BME280;55230;42.602;23.470;2023-05-01T07:21:53;93666.31;;;13.37;92.91
11053;BME280;55230;42.602;23.470;2023-05-01T07:24:19;93537.44;;;12.98;90.67
11053;BME280;55230;42.602;23.470;2023-05-01T07:26:46;93729.25;;;14.64;87.47
11053;BME280;55230;42.602;23.470;2023-05-01T07:29:14;93696.03;;;14.40;87.09
11053;BME280;55230;42.602;23.470;2023-05-01T07:31:43;93697.91;;;14.63;88.71
11053;BME280;55230;42.602;23.470;2023-05-01T07:34:10;93286.16;;;11.91;87.11
11053;BME280;55230;42.602;23.470;2023-05-01T07:36:37;93700.50;;;14.43;86.96
11053;BME280;55230;42.602;23.470;2023-05-01T07:39:03;93653.50;;;14.23;87.55
11053;BME280;55230;42.602;23.470;2023-05-01T07:41:30;93697.53;;;14.70;85.06
11053;BME280;55230;42.602;23.470;2023-05-01T07:43:57;93699.59;;;15.04;83.45
11053;BME280;55230;42.602;23.470;2023-05-01T07:46:24;93682.00;;;14.85;85.13
11053;BME280;55230;42.602;23.470;2023-05-01T07:48:53;93608.41;;;14.83;84.41
11053;BME280;55230;42.602;23.470;2023-05-01T07:51:19;93696.88;;;15.68;81.22
11053;BME280;55230;42.602;23.470;2023-05-01T07:53:46;93623.59;;;14.75;76.60
11053;BME280;55230;42.602;23.470;2023-05-01T07:56:13;93700.13;;;15.08;76.73
11053;BME280;55230;42.602;23.470;2023-05-01T07:58:40;93663.28;;;14.87;76.61
11053;BME280;55230;42.602;23.470;2023-05-01T08:01:08;93667.91;;;15.85;77.74
11053;BME280;55230;42.602;23.470;2023-05-01T08:03:35;93672.97;;;16.58;73.25
11053;BME280;55230;42.602;23.470;2023-05-01T08:06:03;93709.06;;;17.36;73.79
11053;BME280;55230;42.602;23.470;2023-05-01T08:08:30;93441.78;;;15.41;69.95
11053;BME280;55230;42.602;23.470;2023-05-01T08:10:57;93700.34;;;17.31;69.04
11053;BME280;55230;42.602;23.470;2023-05-01T08:13:24;93434.81;;;15.60;69.56
11053;BME280;55230;42.602;23.470;2023-05-01T08:15:51;93670.69;;;17.08;72.79
11053;BME280;55230;42.602;23.470;2023-05-01T08:18:17;93635.72;;;16.24;72.38
11053;BME280;55230;42.602;23.470;2023-05-01T08:20:45;93706.59;;;17.43;72.91
11053;BME280;55230;42.602;23.470;2023-05-01T08:23:14;93705.69;;;17.20;72.59
11053;BME280;55230;42.602;23.470;2023-05-01T08:25:41;93713.88;;;16.89;63.15
11053;BME280;55230;42.602;23.470;2023-05-01T08:28:08;93681.97;;;16.95;55.79
11053;BME280;55230;42.602;23.470;2023-05-01T08:30:35;93663.44;;;16.48;63.69
11053;BME280;55230;42.602;23.470;2023-05-01T08:33:01;93692.47;;;16.57;70.46
11053;BME280;55230;42.602;23.470;2023-05-01T08:35:28;93688.97;;;16.76;69.09
11053;BME280;55230;42.602;23.470;2023-05-01T08:37:55;93689.59;;;16.91;66.85
11053;BME280;55230;42.602;23.470;2023-05-01T08:40:24;93690.69;;;16.99;66.47
11053;BME280;55230;42.602;23.470;2023-05-01T08:42:52;93651.91;;;16.84;62.28
11053;BME280;55230;42.602;23.470;2023-05-01T08:45:20;93752.81;;;17.89;64.19
11053;BME280;55230;42.602;23.470;2023-05-01T08:47:50;93598.31;;;17.01;58.60
11053;BME280;55230;42.602;23.470;2023-05-01T08:50:18;93697.06;;;17.59;59.30
11053;BME280;55230;42.602;23.470;2023-05-01T08:52:46;93588.75;;;16.49;59.27
11053;BME280;55230;42.602;23.470;2023-05-01T08:55:16;93617.19;;;16.28;60.86
11053;BME280;55230;42.602;23.470;2023-05-01T08:57:47;93368.28;;;15.04;60.24
11053;BME280;55230;42.602;23.470;2023-05-01T09:00:17;93684.38;;;17.50;56.36
11053;BME280;55230;42.602;23.470;2023-05-01T09:02:45;93696.38;;;18.11;53.40
11053;BME280;55230;42.602;23.470;2023-05-01T09:05:14;93301.47;;;16.11;54.37
11053;BME280;55230;42.602;23.470;2023-05-01T09:07:42;93569.63;;;17.54;56.14
11053;BME280;55230;42.602;23.470;2023-05-01T09:10:10;93683.25;;;17.68;59.60
11053;BME280;55230;42.602;23.470;2023-05-01T09:12:38;93691.41;;;18.15;57.63
11053;BME280;55230;42.602;23.470;2023-05-01T09:15:08;93628.28;;;18.45;49.79
11053;BME280;55230;42.602;23.470;2023-05-01T09:17:35;93679.56;;;18.24;50.23
11053;BME280;55230;42.602;23.470;2023-05-01T09:20:03;93660.84;;;18.70;54.72
11053;BME280;55230;42.602;23.470;2023-05-01T09:22:30;93642.22;;;19.29;48.71
11053;BME280;55230;42.602;23.470;2023-05-01T09:24:57;93617.53;;;17.66;51.58
11053;BME280;55230;42.602;23.470;2023-05-01T09:27:25;93661.91;;;18.08;51.79
11053;BME280;55230;42.602;23.470;2023-05-01T09:29:52;93500.56;;;16.78;54.45
11053;BME280;55230;42.602;23.470;2023-05-01T09:32:24;93652.50;;;17.62;53.84
11053;BME280;55230;42.602;23.470;2023-05-01T09:34:53;93688.28;;;17.80;56.11
11053;BME280;55230;42.602;23.470;2023-05-01T09:37:28;93685.56;;;17.12;58.32
11053;BME280;55230;42.602;23.470;2023-05-01T09:40:06;93669.06;;;16.90;58.60
11053;BME280;55230;42.602;23.470;2023-05-01T09:42:34;93679.78;;;17.36;57.14
11053;BME280;55230;42.602;23.470;2023-05-01T09:45:03;93649.00;;;16.93;56.36
11053;BME280;55230;42.602;23.470;2023-05-01T09:47:31;93180.16;;;13.27;58.49
11053;BME280;55230;42.602;23.470;2023-05-01T09:49:59;93666.53;;;16.87;58.36
11053;BME280;55230;42.602;23.470;2023-05-01T09:52:26;93675.88;;;17.06;57.02
11053;BME280;55230;42.602;23.470;2023-05-01T09:55:11;93670.03;;;17.24;52.86
11053;BME280;55230;42.602;23.470;2023-05-01T09:57:39;93670.91;;;17.72;54.59
11053;BME280;55230;42.602;23.470;2023-05-01T10:00:08;93656.97;;;17.65;51.89
11053;BME280;55230;42.602;23.470;2023-05-01T10:02:38;93638.22;;;17.04;56.28
11053;BME280;55230;42.602;23.470;2023-05-01T10:05:07;93301.16;;;14.59;57.42
11053;BME280;55230;42.602;23.470;2023-05-01T10:07:34;93672.22;;;17.14;57.90
11053;BME280;55230;42.602;23.470;2023-05-01T10:10:17;93637.72;;;17.06;60.08
11053;BME280;55230;42.602;23.470;2023-05-01T10:12:44;93667.59;;;17.63;56.27
11053;BME280;55230;42.602;23.470;2023-05-01T10:15:13;93624.91;;;17.54;55.71
11053;BME280;55230;42.602;23.470;2023-05-01T10:17:42;93441.13;;;16.34;51.30
11053;BME280;55230;42.602;23.470;2023-05-01T10:20:11;93673.25;;;17.54;54.74
11053;BME280;55230;42.602;23.470;2023-05-01T10:22:38;93624.53;;;16.99;54.30
11053;BME280;55230;42.602;23.470;2023-05-01T10:25:07;93665.94;;;17.34;55.84
11053;BME280;55230;42.602;23.470;2023-05-01T10:27:37;93687.25;;;17.36;57.82
11053;BME280;55230;42.602;23.470;2023-05-01T10:30:05;93646.34;;;16.99;57.28
11053;BME280;55230;42.602;23.470;2023-05-01T10:32:33;93593.34;;;16.69;59.57
11053;BME280;55230;42.602;23.470;2023-05-01T10:35:06;93194.66;;;13.44;61.01
11053;BME280;55230;42.602;23.470;2023-05-01T10:37:38;93494.03;;;16.02;57.50
11053;BME280;55230;42.602;23.470;2023-05-01T10:40:45;93656.81;;;17.43;60.63
11053;BME280;55230;42.602;23.470;2023-05-01T10:43:16;93581.88;;;17.27;57.99
11053;BME280;55230;42.602;23.470;2023-05-01T10:45:44;93662.03;;;18.53;73.98
11053;BME280;55230;42.602;23.470;2023-05-01T10:48:11;93653.16;;;18.91;75.39
11053;BME280;55230;42.602;23.470;2023-05-01T10:51:08;93662.84;;;19.41;71.84
11053;BME280;55230;42.602;23.470;2023-05-01T10:53:36;93603.22;;;18.96;68.43
11053;BME280;55230;42.602;23.470;2023-05-01T10:56:03;93592.69;;;18.22;64.32
11053;BME280;55230;42.602;23.470;2023-05-01T10:58:55;93676.94;;;18.46;57.18
11053;BME280;55230;42.602;23.470;2023-05-01T11:01:30;93625.81;;;17.40;62.79
11053;BME280;55230;42.602;23.470;2023-05-01T11:03:58;93670.47;;;17.48;63.69
11053;BME280;55230;42.602;23.470;2023-05-01T11:06:27;93615.53;;;17.18;62.90
11053;BME280;55230;42.602;23.470;2023-05-01T11:08:53;93669.53;;;17.99;61.96
11053;BME280;55230;42.602;23.470;2023-05-01T11:11:48;93672.66;;;18.34;56.82
11053;BME280;55230;42.602;23.470;2023-05-01T11:14:15;93607.44;;;17.83;55.72
11053;BME280;55230;42.602;23.470;2023-05-01T11:16:44;93550.78;;;17.08;59.04
11053;BME280;55230;42.602;23.470;2023-05-01T11:19:44;93654.66;;;18.00;57.27
11053;BME280;55230;42.602;23.470;2023-05-01T11:22:15;93692.16;;;18.05;49.01
11053;BME280;55230;42.602;23.470;2023-05-01T11:24:42;93641.16;;;17.80;48.54
11053;BME280;55230;42.602;23.470;2023-05-01T11:27:13;93631.63;;;17.59;47.66
11053;BME280;55230;42.602;23.470;2023-05-01T11:29:43;93680.09;;;17.80;48.82
11053;BME280;55230;42.602;23.470;2023-05-01T11:32:14;93677.03;;;17.67;47.04
11053;BME280;55230;42.602;23.470;2023-05-01T11:34:41;93679.22;;;17.58;47.99
11053;BME280;55230;42.602;23.470;2023-05-01T11:37:08;93642.00;;;17.49;48.70
11053;BME280;55230;42.602;23.470;2023-05-01T11:39:45;93674.91;;;17.88;47.81
11053;BME280;55230;42.602;23.470;2023-05-01T11:42:12;93680.91;;;17.92;47.17
11053;BME280;55230;42.602;23.470;2023-05-01T11:44:38;93678.97;;;18.03;44.99
11053;BME280;55230;42.602;23.470;2023-05-01T11:47:05;93713.16;;;17.93;43.81
11053;BME280;55230;42.602;23.470;2023-05-01T11:49:34;93673.50;;;17.98;44.58
11053;BME280;55230;42.602;23.470;2023-05-01T11:52:01;93647.53;;;17.66;46.48
11053;BME280;55230;42.602;23.470;2023-05-01T11:54:28;93685.22;;;17.62;47.78
11053;BME280;55230;42.602;23.470;2023-05-01T11:56:59;93685.25;;;17.73;45.41
11053;BME280;55230;42.602;23.470;2023-05-01T11:59:26;93600.16;;;17.21;45.08
11053;BME280;55230;42.602;23.470;2023-05-01T12:01:53;93633.75;;;17.86;42.52
11053;BME280;55230;42.602;23.470;2023-05-01T12:04:24;93687.75;;;18.29;42.49
11053;BME280;55230;42.602;23.470;2023-05-01T12:06:52;93678.19;;;18.56;41.78
11053;BME280;55230;42.602;23.470;2023-05-01T12:09:20;93686.97;;;18.18;41.19
11053;BME280;55230;42.602;23.470;2023-05-01T12:11:48;93686.72;;;18.16;41.81
11053;BME280;55230;42.602;23.470;2023-05-01T12:14:17;93671.97;;;17.86;42.88
11053;BME280;55230;42.602;23.470;2023-05-01T12:16:44;93682.59;;;17.84;44.16
11053;BME280;55230;42.602;23.470;2023-05-01T12:19:12;93611.72;;;17.10;46.13
11053;BME280;55230;42.602;23.470;2023-05-01T12:21:40;93646.44;;;17.15;46.25
11053;BME280;55230;42.602;23.470;2023-05-01T12:24:07;93635.56;;;16.84;48.20
11053;BME280;55230;42.602;23.470;2023-05-01T12:26:34;93679.94;;;17.21;47.55
11053;BME280;55230;42.602;23.470;2023-05-01T12:29:03;93675.38;;;17.39;45.37
11053;BME280;55230;42.602;23.470;2023-05-01T12:31:31;93642.25;;;17.14;43.79
11053;BME280;55230;42.602;23.470;2023-05-01T12:33:59;93678.97;;;17.56;43.12
11053;BME280;55230;42.602;23.470;2023-05-01T12:36:28;93643.91;;;17.38;43.38
11053;BME280;55230;42.602;23.470;2023-05-01T12:39:00;93675.56;;;17.66;43.85
11053;BME280;55230;42.602;23.470;2023-05-01T12:41:36;93552.97;;;16.67;45.13
11053;BME280;55230;42.602;23.470;2023-05-01T12:44:15;93689.47;;;17.37;46.72
11053;BME280;55230;42.602;23.470;2023-05-01T12:46:44;93458.13;;;15.98;49.26
11053;BME280;55230;42.602;23.470;2023-05-01T12:49:15;93644.69;;;16.81;50.87
11053;BME280;55230;42.602;23.470;2023-05-01T12:51:45;93658.97;;;17.02;53.17
11053;BME280;55230;42.602;23.470;2023-05-01T12:54:18;93663.06;;;17.17;52.61
11053;BME280;55230;42.602;23.470;2023-05-01T12:56:45;93477.25;;;15.78;53.46
11053;BME280;55230;42.602;23.470;2023-05-01T12:59:19;93603.19;;;16.61;52.28